Time;durP1;ratioP1;P1;durP2;ratioP2;P2;SDS_P1;SDS_P2;PMS_P1;PMS_P2;Temp;Humidity;BMP_temperature;BMP_pressure;BME280_temperature;BME280_humidity;BME280_pressure;Samples;Min_cycle;Max_cycle;Signal;HPM_P1;HPM_P2
2020/12/18 00:01:31;;;;;;;0.13;0.13;;;15.40;88.80;;;;;;4230759;28;20516;-40
2020/12/18 00:03:53;;;;;;;2.22;2.10;;;15.40;89.00;;;;;;4230885;28;20062;-43
2020/12/18 00:06:15;;;;;;;1.00;1.00;;;15.60;88.50;;;;;;4214563;28;20048;-42
2020/12/18 00:08:36;;;;;;;0.00;0.00;;;15.70;87.80;;;;;;4231230;28;20501;-41
2020/12/18 00:10:56;;;;;;;0.30;0.30;;;15.80;87.10;;;;;;4229458;28;20047;-40
2020/12/18 00:13:17;;;;;;;0.32;0.32;;;15.90;86.80;;;;;;4230667;28;20104;-40
2020/12/18 00:15:39;;;;;;;1.50;0.85;;;15.90;86.50;;;;;;4213212;28;20139;-41
2020/12/18 00:18:00;;;;;;;;;;;15.90;86.50;;;;;;4213125;28;20087;-40
2020/12/18 00:20:22;;;;;;;0.10;0.10;;;15.90;86.60;;;;;;4213949;28;19931;-41
2020/12/18 00:22:43;;;;;;;0.75;0.75;;;15.90;86.50;;;;;;4227203;28;20048;-41
2020/12/18 00:25:04;;;;;;;0.00;0.00;;;15.80;86.50;;;;;;4230775;28;20052;-40
2020/12/18 00:27:25;;;;;;;0.00;0.00;;;15.80;86.70;;;;;;4230653;28;20047;-41
2020/12/18 00:29:45;;;;;;;0.00;0.00;;;15.80;86.80;;;;;;4230382;28;20055;-42
2020/12/18 00:32:07;;;;;;;0.38;0.38;;;15.70;86.90;;;;;;4230670;28;20131;-41
2020/12/18 00:34:28;;;;;;;0.08;0.08;;;15.70;87.00;;;;;;4230484;28;20493;-40
2020/12/18 00:36:50;;;;;;;;;;;15.70;87.10;;;;;;4230902;28;20059;-40
2020/12/18 00:39:11;;;;;;;0.00;0.00;;;15.70;87.30;;;;;;4230212;28;19926;-41
2020/12/18 00:41:33;;;;;;;0.00;0.00;;;15.60;88.30;;;;;;4230407;27;20078;-40
2020/12/18 00:43:54;;;;;;;0.20;0.20;;;15.60;88.40;;;;;;4230858;27;20051;-41
2020/12/18 00:46:14;;;;;;;0.00;0.00;;;15.60;87.70;;;;;;4230223;28;20051;-40
2020/12/18 00:48:36;;;;;;;0.00;0.00;;;15.60;87.80;;;;;;4230592;27;20043;-41
2020/12/18 00:51:03;;;;;;;1.38;0.65;;;15.70;87.10;;;;;;4229666;28;20128;-45
2020/12/18 00:53:24;;;;;;;0.50;0.50;;;15.80;86.60;;;;;;4212170;28;20526;-41
2020/12/18 00:55:45;;;;;;;0.00;0.00;;;15.90;86.20;;;;;;4212553;28;20064;-41
2020/12/18 00:58:06;;;;;;;0.15;0.15;;;15.90;86.00;;;;;;4212203;28;20217;-41
2020/12/18 01:00:27;;;;;;;;;;;15.90;86.00;;;;;;4213723;28;20094;-40
2020/12/18 01:03:02;;;;;;;0.35;0.35;;;15.90;86.00;;;;;;4218796;28;20577;-41
2020/12/18 01:05:24;;;;;;;0.00;0.00;;;15.90;86.10;;;;;;4229165;28;20055;-40
2020/12/18 01:07:46;;;;;;;0.20;0.20;;;15.90;85.90;;;;;;4228381;28;20052;-40
2020/12/18 01:10:07;;;;;;;0.45;0.45;;;15.90;85.70;;;;;;4228881;28;20051;-41
2020/12/18 01:12:28;;;;;;;0.10;0.10;;;15.90;85.70;;;;;;4228841;28;20501;-40
2020/12/18 01:14:49;;;;;;;0.00;0.00;;;15.90;85.80;;;;;;4229101;28;20506;-41
2020/12/18 01:17:10;;;;;;;0.85;0.85;;;15.90;86.00;;;;;;4229882;28;20082;-41
2020/12/18 01:19:32;;;;;;;0.00;0.00;;;15.80;86.10;;;;;;4228457;28;20502;-41
2020/12/18 01:21:54;;;;;;;0.00;0.00;;;15.90;86.10;;;;;;4229975;28;20555;-41
2020/12/18 01:24:25;;;;;;;0.70;0.47;;;15.90;85.90;;;;;;4211774;28;20079;-41
2020/12/18 01:26:50;;;;;;;0.35;0.35;;;15.90;85.70;;;;;;4212093;28;20062;-45
2020/12/18 01:29:12;;;;;;;0.10;0.10;;;15.90;85.70;;;;;;4221281;28;20048;-40
2020/12/18 01:31:35;;;;;;;0.88;0.80;;;15.90;85.90;;;;;;4228349;28;20082;-40
2020/12/18 01:33:56;;;;;;;0.03;0.03;;;15.80;85.90;;;;;;4229052;28;20516;-41
2020/12/18 01:36:21;;;;;;;0.00;0.00;;;15.80;86.10;;;;;;4228308;28;20557;-40
2020/12/18 01:38:46;;;;;;;0.28;0.28;;;15.80;86.30;;;;;;4228460;28;20052;-40
2020/12/18 01:41:07;;;;;;;0.28;0.28;;;15.70;86.50;;;;;;4229747;28;20494;-41
2020/12/18 01:43:28;;;;;;;0.40;0.40;;;15.70;87.60;;;;;;4228044;28;20051;-40
2020/12/18 01:45:49;;;;;;;0.00;0.00;;;15.90;86.20;;;;;;4228405;28;20493;-40
2020/12/18 01:48:14;;;;;;;0.00;0.00;;;16.20;84.80;;;;;;4212525;28;20502;-41
2020/12/18 01:50:50;;;;;;;0.28;0.28;;;16.40;83.40;;;;;;4211832;28;20483;-40
2020/12/18 01:53:15;;;;;;;0.20;0.20;;;16.60;82.50;;;;;;4212452;28;20575;-41
2020/12/18 01:55:50;;;;;;;0.10;0.10;;;16.60;82.10;;;;;;4225624;28;20820;-40
2020/12/18 01:58:14;;;;;;;0.00;0.00;;;16.70;81.60;;;;;;4225990;28;20048;-40
2020/12/18 02:00:42;;;;;;;0.63;0.57;;;16.80;81.40;;;;;;4225813;28;20051;-41
2020/12/18 02:03:04;;;;;;;0.57;0.57;;;16.80;81.10;;;;;;4225658;28;20048;-41
2020/12/18 02:05:42;;;;;;;0.17;0.17;;;16.80;81.00;;;;;;4211604;28;20532;-41
2020/12/18 02:08:22;;;;;;;0.00;0.00;;;16.90;80.70;;;;;;4211265;28;20146;-42
2020/12/18 02:11:03;;;;;;;0.13;0.13;;;16.90;80.50;;;;;;4212290;28;20658;-40
2020/12/18 02:13:26;;;;;;;0.32;0.32;;;16.90;80.70;;;;;;4211114;28;20059;-41
2020/12/18 02:15:50;;;;;;;0.00;0.00;;;16.80;80.80;;;;;;4211702;28;20122;-40
2020/12/18 02:18:19;;;;;;;0.08;0.08;;;16.80;80.80;;;;;;4219089;28;20075;-41
2020/12/18 02:20:41;;;;;;;0.00;0.00;;;16.80;81.50;;;;;;4227889;28;20494;-42
2020/12/18 02:23:02;;;;;;;;;;;16.80;80.60;;;;;;4228727;28;20463;-40
2020/12/18 02:25:31;;;;;;;0.30;0.30;;;16.80;80.80;;;;;;4228363;28;20011;-41
2020/12/18 02:27:53;;;;;;;0.00;0.00;;;16.70;81.00;;;;;;4211006;28;20052;-41
2020/12/18 02:30:17;;;;;;;0.20;0.20;;;16.70;81.30;;;;;;4211081;28;20516;-41
2020/12/18 02:33:04;;;;;;;0.65;0.65;;;16.60;81.60;;;;;;4212602;28;20124;-41
2020/12/18 02:35:28;;;;;;;0.10;0.10;;;16.70;81.60;;;;;;4211039;28;20548;-41
2020/12/18 02:37:49;;;;;;;0.10;0.10;;;16.90;80.30;;;;;;4211045;28;20113;-40
2020/12/18 02:40:21;;;;;;;1.38;0.65;;;17.10;79.40;;;;;;4227544;28;20547;-41
2020/12/18 02:43:04;;;;;;;0.00;0.00;;;17.20;78.70;;;;;;4229293;28;20054;-40
2020/12/18 02:45:26;;;;;;;0.00;0.00;;;17.30;78.50;;;;;;4227761;28;20497;-43
2020/12/18 02:48:09;;;;;;;0.47;0.43;;;17.20;78.40;;;;;;4227344;28;20058;-41
2020/12/18 02:50:36;;;;;;;0.00;0.00;;;17.30;78.40;;;;;;4227325;28;20102;-40
2020/12/18 02:52:57;;;;;;;0.35;0.35;;;17.30;78.40;;;;;;4210800;28;20055;-40
2020/12/18 02:55:37;;;;;;;0.52;0.52;;;17.20;78.50;;;;;;4214772;28;20051;-41
2020/12/18 02:58:26;;;;;;;0.00;0.00;;;17.10;78.80;;;;;;4227952;28;20039;-41
2020/12/18 03:00:50;;;;;;;0.25;0.25;;;17.10;79.30;;;;;;4227558;28;20051;-41
2020/12/18 03:03:12;;;;;;;0.00;0.00;;;17.10;79.20;;;;;;4227678;28;20841;-40
2020/12/18 03:05:35;;;;;;;0.08;0.08;;;17.10;79.10;;;;;;4227315;28;20047;-41
2020/12/18 03:08:07;;;;;;;0.75;0.75;;;17.10;79.40;;;;;;4228733;28;20062;-41
2020/12/18 03:10:32;;;;;;;0.20;0.20;;;17.00;79.50;;;;;;4227762;28;20059;-44
2020/12/18 03:12:53;;;;;;;1.27;1.17;;;17.00;79.70;;;;;;4228905;28;20047;-42
2020/12/18 03:15:15;;;;;;;;;;;17.10;79.30;;;;;;4228301;28;20060;-42
2020/12/18 03:17:50;;;;;;;1.02;0.80;;;17.20;78.90;;;;;;4227421;28;20325;-42
2020/12/18 03:20:12;;;;;;;0.00;0.00;;;17.30;78.30;;;;;;4227165;28;20051;-42
2020/12/18 03:22:56;;;;;;;1.00;1.00;;;17.50;77.30;;;;;;4228862;28;20059;-41
2020/12/18 03:25:37;;;;;;;1.98;1.80;;;17.70;76.50;;;;;;4228312;28;20043;-41
2020/12/18 03:28:03;;;;;;;0.45;0.45;;;17.70;76.20;;;;;;4227494;28;20087;-42
2020/12/18 03:30:26;;;;;;;0.20;0.20;;;17.70;76.20;;;;;;4227675;28;20051;-42
2020/12/18 03:32:50;;;;;;;2.83;0.90;;;17.60;76.30;;;;;;4230648;28;20514;-41
2020/12/18 03:35:14;;;;;;;0.00;0.00;;;17.60;76.70;;;;;;4230097;28;20051;-41
2020/12/18 03:37:35;;;;;;;0.00;0.00;;;17.40;77.10;;;;;;4230534;28;20067;-42
2020/12/18 03:40:03;;;;;;;0.10;0.10;;;17.30;77.60;;;;;;4213477;28;20094;-41
2020/12/18 03:42:29;;;;;;;0.43;0.22;;;17.20;78.10;;;;;;4213663;28;20090;-40
2020/12/18 03:44:51;;;;;;;;;;;17.10;78.60;;;;;;4216993;28;20126;-40
2020/12/18 03:47:32;;;;;;;0.00;0.00;;;17.10;78.80;;;;;;4231591;28;20374;-40
2020/12/18 03:50:06;;;;;;;0.28;0.28;;;17.10;79.00;;;;;;4214583;28;20085;-40
2020/12/18 03:52:32;;;;;;;0.00;0.00;;;17.00;79.10;;;;;;4213469;28;20569;-40
2020/12/18 03:54:53;;;;;;;0.45;0.30;;;16.90;79.50;;;;;;4216587;28;20068;-41
2020/12/18 03:57:35;;;;;;;0.00;0.00;;;16.80;79.90;;;;;;4214752;28;20079;-41
2020/12/18 04:00:10;;;;;;;0.82;0.65;;;16.80;80.20;;;;;;4217488;28;20058;-41
2020/12/18 04:02:41;;;;;;;0.00;0.00;;;16.80;80.40;;;;;;4228024;28;20134;-41
2020/12/18 04:05:04;;;;;;;0.00;0.00;;;16.70;80.50;;;;;;4230010;28;20059;-41
2020/12/18 04:07:25;;;;;;;0.00;0.00;;;16.60;80.70;;;;;;4230278;28;20205;-40
2020/12/18 04:09:47;;;;;;;0.30;0.30;;;16.60;81.20;;;;;;4229671;28;20051;-41
2020/12/18 04:12:14;;;;;;;0.00;0.00;;;16.60;82.30;;;;;;4229700;28;20044;-41
2020/12/18 04:14:47;;;;;;;0.10;0.10;;;16.70;80.70;;;;;;4229528;28;20071;-41
2020/12/18 04:17:14;;;;;;;0.30;0.15;;;16.90;79.90;;;;;;4230047;28;20052;-41
2020/12/18 04:19:42;;;;;;;1.23;1.13;;;16.90;79.40;;;;;;4215281;28;20518;-41
2020/12/18 04:22:04;;;;;;;0.00;0.00;;;17.00;79.30;;;;;;4230183;28;20514;-41
2020/12/18 04:24:51;;;;;;;0.00;0.00;;;16.90;79.30;;;;;;4231114;28;20059;-40
2020/12/18 04:27:14;;;;;;;0.03;0.03;;;16.90;79.80;;;;;;4229335;28;20056;-40
2020/12/18 04:29:35;;;;;;;;;;;16.90;79.50;;;;;;4230060;28;20573;-42
2020/12/18 04:31:59;;;;;;;0.82;0.82;;;17.00;79.00;;;;;;4229243;28;19924;-40
2020/12/18 04:34:19;;;;;;;;;;;17.20;78.30;;;;;;4229917;28;20051;-41
2020/12/18 04:37:07;;;;;;;0.10;0.10;;;17.20;77.90;;;;;;4210425;28;19962;-40
2020/12/18 04:39:47;;;;;;;0.63;0.63;;;17.20;77.90;;;;;;4219167;28;20126;-41
2020/12/18 04:42:12;;;;;;;0.30;0.30;;;17.20;78.00;;;;;;4229097;28;20055;-40
2020/12/18 04:44:34;;;;;;;0.00;0.00;;;17.20;78.00;;;;;;4229224;28;20140;-41
2020/12/18 04:47:00;;;;;;;0.10;0.10;;;17.10;78.30;;;;;;4229220;28;20070;-41
2020/12/18 04:49:22;;;;;;;;;;;17.00;78.70;;;;;;4229514;28;20047;-41
2020/12/18 04:51:53;;;;;;;0.00;0.00;;;17.00;78.80;;;;;;4229154;28;20612;-40
2020/12/18 04:54:35;;;;;;;0.10;0.10;;;17.10;78.70;;;;;;4229430;28;20052;-41
2020/12/18 04:57:04;;;;;;;0.45;0.45;;;17.10;78.70;;;;;;4229071;28;20109;-40
2020/12/18 04:59:27;;;;;;;0.00;0.00;;;17.00;78.60;;;;;;4228999;28;20052;-41
2020/12/18 05:01:58;;;;;;;2.10;1.73;;;17.00;79.00;;;;;;4229065;28;20117;-40
2020/12/18 05:04:28;;;;;;;0.03;0.03;;;16.90;79.40;;;;;;4228553;28;20174;-42
2020/12/18 05:07:07;;;;;;;0.00;0.00;;;16.90;79.50;;;;;;4229294;28;20437;-41
2020/12/18 05:09:37;;;;;;;0.43;0.43;;;17.00;78.70;;;;;;4212319;28;20105;-41
2020/12/18 05:12:05;;;;;;;0.68;0.68;;;17.10;78.30;;;;;;4211981;28;20055;-41
2020/12/18 05:14:29;;;;;;;0.30;0.30;;;17.10;78.20;;;;;;4212074;28;20470;-40
2020/12/18 05:17:10;;;;;;;0.00;0.00;;;17.10;78.10;;;;;;4221616;28;20052;-41
2020/12/18 05:19:35;;;;;;;0.20;0.20;;;17.20;77.90;;;;;;4229052;28;20748;-41
2020/12/18 05:22:15;;;;;;;0.00;0.00;;;17.20;77.70;;;;;;4229854;28;20044;-41
2020/12/18 05:25:07;;;;;;;0.43;0.40;;;17.20;78.00;;;;;;4228653;28;20184;-41
2020/12/18 05:27:32;;;;;;;0.57;0.57;;;17.00;78.40;;;;;;4229996;28;20056;-41
2020/12/18 05:29:55;;;;;;;0.00;0.00;;;17.00;78.70;;;;;;4228412;28;20056;-42
2020/12/18 05:32:38;;;;;;;0.00;0.00;;;16.90;79.20;;;;;;4220622;28;20048;-40
2020/12/18 05:35:11;;;;;;;0.10;0.10;;;16.70;79.90;;;;;;4228280;28;20059;-40
2020/12/18 05:37:57;;;;;;;0.00;0.00;;;16.80;79.90;;;;;;4228519;28;20051;-40
2020/12/18 05:40:46;;;;;;;0.38;0.38;;;16.90;79.20;;;;;;4228289;28;20062;-41
2020/12/18 05:43:16;;;;;;;5.38;0.65;;;17.10;78.20;;;;;;4228353;28;20460;-42
2020/12/18 05:45:42;;;;;;;0.10;0.10;;;17.30;77.30;;;;;;4228360;28;20498;-42
2020/12/18 05:48:29;;;;;;;0.80;0.60;;;17.50;76.70;;;;;;4218526;28;20145;-41
2020/12/18 05:50:59;;;;;;;0.00;0.00;;;17.60;76.20;;;;;;4228069;28;20414;-41
2020/12/18 05:53:22;;;;;;;0.38;0.38;;;17.60;75.80;;;;;;4229523;28;20425;-42
2020/12/18 05:55:51;;;;;;;0.00;0.00;;;17.60;75.60;;;;;;4228229;28;20067;-41
2020/12/18 05:58:25;;;;;;;0.00;0.00;;;17.70;75.30;;;;;;4228095;28;20060;-41
2020/12/18 06:01:04;;;;;;;0.30;0.30;;;17.80;74.50;;;;;;4228383;28;20482;-41
2020/12/18 06:03:49;;;;;;;0.00;0.00;;;17.90;74.20;;;;;;4213106;28;20591;-40
2020/12/18 06:06:15;;;;;;;0.00;0.00;;;17.80;74.30;;;;;;4227932;28;20055;-41
2020/12/18 06:08:40;;;;;;;0.00;0.00;;;17.80;74.70;;;;;;4227865;28;20583;-41
2020/12/18 06:11:08;;;;;;;0.00;0.00;;;17.80;74.80;;;;;;4228157;28;20558;-41
2020/12/18 06:13:37;;;;;;;0.75;0.73;;;17.80;74.80;;;;;;4211785;28;20040;-41
2020/12/18 06:16:11;;;;;;;0.00;0.00;;;17.70;74.90;;;;;;4211638;28;20051;-41
2020/12/18 06:19:01;;;;;;;0.93;0.93;;;17.60;75.30;;;;;;4212650;28;20426;-41
2020/12/18 06:21:29;;;;;;;0.22;0.22;;;17.60;75.50;;;;;;4211331;28;20056;-41
2020/12/18 06:23:49;;;;;;;0.82;0.47;;;17.60;75.50;;;;;;4211752;28;20086;-42
2020/12/18 06:26:25;;;;;;;0.52;0.52;;;17.60;75.80;;;;;;4216454;28;20201;-41
2020/12/18 06:29:19;;;;;;;0.10;0.10;;;17.50;76.20;;;;;;4211220;28;20075;-42
2020/12/18 06:32:20;;;;;;;0.20;0.20;;;17.40;76.70;;;;;;4229364;28;20092;-42
2020/12/18 06:35:26;;;;;;;0.00;0.00;;;17.30;77.40;;;;;;4227586;28;20055;-41
2020/12/18 06:38:24;;;;;;;0.10;0.10;;;17.30;77.20;;;;;;4228912;28;20497;-40
2020/12/18 06:41:21;;;;;;;4.90;0.75;;;17.40;77.00;;;;;;4227242;28;20071;-41
2020/12/18 06:43:59;;;;;;;0.10;0.10;;;17.30;77.00;;;;;;4210963;28;20056;-40
2020/12/18 06:46:26;;;;;;;0.00;0.00;;;17.30;77.30;;;;;;4218637;28;20062;-43
2020/12/18 06:49:17;;;;;;;1.40;1.40;;;17.20;77.70;;;;;;4195925;28;21926;-41
2020/12/18 06:51:58;;;;;;;0.00;0.00;;;17.10;78.30;;;;;;4205620;28;20086;-40
2020/12/18 06:54:57;;;;;;;0.30;0.30;;;17.00;78.80;;;;;;4210880;28;20074;-41
2020/12/18 06:57:29;;;;;;;0.55;0.55;;;17.20;78.10;;;;;;4210735;28;20055;-40
2020/12/18 07:00:26;;;;;;;0.00;0.00;;;17.40;77.30;;;;;;4219469;28;20124;-41
2020/12/18 07:02:53;;;;;;;0.22;0.22;;;17.60;76.40;;;;;;4229241;28;20056;-43
2020/12/18 07:05:35;;;;;;;0.00;0.00;;;17.70;76.60;;;;;;4229401;28;20130;-41
2020/12/18 07:07:58;;;;;;;0.00;0.00;;;17.70;75.80;;;;;;4231342;28;20901;-41
2020/12/18 07:10:20;;;;;;;0.05;0.05;;;17.60;76.00;;;;;;4231171;28;20052;-42
2020/12/18 07:12:40;;;;;;;0.20;0.20;;;17.60;77.00;;;;;;4232228;28;20072;-40
2020/12/18 07:15:05;;;;;;;0.00;0.00;;;17.50;76.00;;;;;;4232005;28;20154;-41
2020/12/18 07:17:27;;;;;;;0.20;0.20;;;17.40;75.70;;;;;;4232077;27;20052;-41
2020/12/18 07:19:48;;;;;;;1.65;1.55;;;17.20;75.70;;;;;;4231823;28;20116;-45
2020/12/18 07:22:20;;;;;;;0.25;0.25;;;17.10;76.20;;;;;;4230769;28;20047;-41
2020/12/18 07:24:40;;;;;;;0.00;0.00;;;17.10;76.30;;;;;;4231919;28;20044;-43
2020/12/18 07:27:01;;;;;;;0.00;0.00;;;17.00;76.00;;;;;;4231892;27;20074;-41
2020/12/18 07:29:24;;;;;;;0.32;0.32;;;16.90;75.90;;;;;;4214934;28;20079;-41
2020/12/18 07:31:46;;;;;;;0.00;0.00;;;16.90;76.00;;;;;;4215001;28;20589;-44
2020/12/18 07:34:06;;;;;;;1.52;1.30;;;16.70;76.10;;;;;;4214913;28;20551;-42
2020/12/18 07:36:29;;;;;;;0.05;0.05;;;16.70;76.10;;;;;;4214792;28;20142;-41
2020/12/18 07:38:57;;;;;;;0.00;0.00;;;16.80;75.50;;;;;;4214795;28;20052;-41
2020/12/18 07:41:18;;;;;;;0.30;0.30;;;16.80;75.10;;;;;;4214773;28;20055;-41
2020/12/18 07:43:38;;;;;;;0.90;0.90;;;16.90;74.90;;;;;;4214753;28;20666;-42
2020/12/18 07:46:04;;;;;;;4.65;2.05;;;16.90;75.00;;;;;;4224586;28;20509;-41
2020/12/18 07:48:28;;;;;;;0.00;0.00;;;16.90;74.90;;;;;;4231116;27;20421;-41
2020/12/18 07:51:04;;;;;;;0.00;0.00;;;17.00;74.20;;;;;;4230653;28;20048;-40
2020/12/18 07:53:26;;;;;;;0.00;0.00;;;17.20;73.30;;;;;;4230869;28;20051;-41
2020/12/18 07:55:58;;;;;;;0.00;0.00;;;17.30;72.50;;;;;;4222110;28;20563;-40
2020/12/18 07:58:19;;;;;;;2.60;0.70;;;17.60;71.50;;;;;;4229189;28;20064;-40
2020/12/18 08:00:40;;;;;;;0.73;0.73;;;17.70;70.60;;;;;;4230772;28;20058;-41
2020/12/18 08:03:01;;;;;;;0.32;0.32;;;17.90;69.80;;;;;;4230897;28;20085;-41
2020/12/18 08:05:23;;;;;;;0.00;0.00;;;18.00;68.60;;;;;;4230471;28;20047;-41
2020/12/18 08:07:45;;;;;;;0.00;0.00;;;18.20;67.80;;;;;;4223507;28;20442;-40
2020/12/18 08:10:14;;;;;;;0.57;0.57;;;18.30;66.90;;;;;;4231329;28;20058;-41
2020/12/18 08:12:36;;;;;;;0.00;0.00;;;18.20;66.70;;;;;;4231214;28;20919;-41
2020/12/18 08:15:10;;;;;;;0.65;0.35;;;18.10;66.60;;;;;;4231413;28;20484;-42
2020/12/18 08:17:31;;;;;;;0.00;0.00;;;17.90;67.10;;;;;;4230254;28;20074;-40
2020/12/18 08:19:53;;;;;;;;;;;17.80;67.60;;;;;;4218896;28;20589;-40
2020/12/18 08:22:15;;;;;;;0.25;0.25;;;17.60;68.10;;;;;;4230711;28;19969;-40
2020/12/18 08:24:36;;;;;;;0.30;0.20;;;17.50;68.50;;;;;;4231043;28;20098;-39
2020/12/18 08:27:02;;;;;;;0.13;0.13;;;17.30;68.90;;;;;;4213798;28;20056;-40
2020/12/18 08:29:24;;;;;;;0.00;0.00;;;17.10;69.60;;;;;;4227381;28;20070;-40
2020/12/18 08:31:46;;;;;;;1.25;0.93;;;17.00;69.90;;;;;;4230728;27;20157;-41
2020/12/18 08:34:09;;;;;;;0.15;0.15;;;16.90;70.20;;;;;;4230319;28;20475;-40
2020/12/18 08:36:32;;;;;;;0.00;0.00;;;16.80;70.70;;;;;;4230316;27;20052;-40
2020/12/18 08:39:02;;;;;;;0.73;0.22;;;16.70;71.00;;;;;;4230823;28;20040;-41
2020/12/18 08:41:24;;;;;;;0.03;0.03;;;16.50;71.40;;;;;;4230068;28;20413;-41
2020/12/18 08:43:45;;;;;;;0.00;0.00;;;16.40;71.60;;;;;;4213596;28;20343;-40
2020/12/18 08:46:05;;;;;;;0.25;0.25;;;16.30;71.80;;;;;;4219452;28;20064;-40
2020/12/18 08:48:29;;;;;;;0.20;0.20;;;16.20;72.20;;;;;;4229649;28;20143;-40
2020/12/18 08:51:01;;;;;;;0.00;0.00;;;16.10;72.60;;;;;;4230323;27;20082;-40
2020/12/18 08:53:22;;;;;;;0.00;0.00;;;16.00;72.60;;;;;;4230097;28;20047;-40
2020/12/18 08:56:03;;;;;;;0.00;0.00;;;15.90;73.10;;;;;;4229626;27;20120;-40
2020/12/18 08:58:26;;;;;;;0.00;0.00;;;15.80;73.50;;;;;;4229642;28;20047;-40
2020/12/18 09:00:47;;;;;;;0.00;0.00;;;15.70;73.90;;;;;;4230176;28;20501;-41
2020/12/18 09:03:08;;;;;;;18.30;1.30;;;15.70;74.60;;;;;;4230385;28;20082;-40
2020/12/18 09:05:30;;;;;;;0.10;0.10;;;15.80;74.90;;;;;;4230568;28;20131;-41
2020/12/18 09:07:56;;;;;;;0.00;0.00;;;16.00;74.10;;;;;;4230396;28;20661;-41
2020/12/18 09:10:35;;;;;;;0.00;0.00;;;16.20;73.20;;;;;;4213664;28;20052;-40
2020/12/18 09:12:58;;;;;;;0.00;0.00;;;16.30;72.40;;;;;;4213107;28;20048;-41
2020/12/18 09:15:25;;;;;;;0.00;0.00;;;16.40;71.80;;;;;;4217818;28;20047;-40
2020/12/18 09:17:46;;;;;;;0.00;0.00;;;16.40;71.60;;;;;;4227665;28;20492;-41
2020/12/18 09:20:07;;;;;;;0.00;0.00;;;16.30;71.40;;;;;;4230224;28;20465;-40
2020/12/18 09:22:28;;;;;;;0.38;0.38;;;16.30;71.70;;;;;;4229724;27;20059;-40
2020/12/18 09:25:01;;;;;;;0.00;0.00;;;16.30;71.50;;;;;;4213324;28;20466;-40
2020/12/18 09:27:26;;;;;;;0.00;0.00;;;16.60;70.40;;;;;;4229305;28;20778;-40
2020/12/18 09:29:59;;;;;;;0.15;0.15;;;16.70;69.50;;;;;;4230015;28;20052;-42
2020/12/18 09:32:21;;;;;;;0.30;0.30;;;16.70;68.90;;;;;;4214017;28;20129;-42
2020/12/18 09:34:42;;;;;;;1.45;1.35;;;16.70;68.80;;;;;;4224633;28;20052;-42
2020/12/18 09:37:11;;;;;;;0.00;0.00;;;16.70;69.00;;;;;;4229898;28;20087;-41
2020/12/18 09:39:32;;;;;;;0.00;0.00;;;16.60;69.40;;;;;;4229406;28;20172;-41
2020/12/18 09:41:55;;;;;;;0.00;0.00;;;16.50;69.60;;;;;;4229925;28;20104;-41
2020/12/18 09:44:16;;;;;;;0.00;0.00;;;16.40;69.80;;;;;;4229168;28;20130;-41
2020/12/18 09:46:37;;;;;;;0.00;0.00;;;16.30;70.20;;;;;;4221781;28;20134;-41
2020/12/18 09:48:58;;;;;;;0.00;0.00;;;16.30;70.10;;;;;;4229281;28;20051;-41
2020/12/18 09:51:19;;;;;;;0.00;0.00;;;16.30;69.90;;;;;;4229676;28;20055;-41
2020/12/18 09:53:41;;;;;;;0.10;0.10;;;16.30;69.90;;;;;;4229077;28;20047;-41
2020/12/18 09:56:02;;;;;;;0.00;0.00;;;16.20;70.00;;;;;;4228357;28;20143;-41
2020/12/18 09:58:24;;;;;;;0.00;0.00;;;16.20;70.30;;;;;;4212566;28;20076;-41
2020/12/18 10:00:45;;;;;;;0.20;0.20;;;16.20;70.10;;;;;;4218730;28;20131;-41
2020/12/18 10:03:07;;;;;;;0.10;0.10;;;16.30;69.70;;;;;;4229419;28;20051;-40
2020/12/18 10:05:31;;;;;;;0.30;0.30;;;16.40;69.30;;;;;;4213562;28;20048;-41
2020/12/18 10:07:52;;;;;;;0.00;0.00;;;16.60;68.30;;;;;;4228946;28;20043;-41
2020/12/18 10:10:13;;;;;;;0.22;0.22;;;16.90;66.90;;;;;;4229054;28;20657;-42
2020/12/18 10:12:34;;;;;;;0.00;0.00;;;17.10;65.80;;;;;;4229424;28;20063;-42
2020/12/18 10:14:55;;;;;;;0.00;0.00;;;17.10;65.30;;;;;;4229246;28;20495;-41
2020/12/18 10:17:17;;;;;;;0.10;0.10;;;17.10;65.30;;;;;;4228894;28;20063;-41
2020/12/18 10:19:39;;;;;;;0.00;0.00;;;17.00;65.90;;;;;;4229467;28;20079;-41
2020/12/18 10:22:00;;;;;;;0.38;0.38;;;16.90;66.50;;;;;;4228710;28;20486;-40
2020/12/18 10:24:21;;;;;;;0.00;0.00;;;16.90;67.10;;;;;;4229044;28;20548;-41
2020/12/18 10:26:49;;;;;;;0.75;0.75;;;16.80;67.60;;;;;;4225893;28;20406;-45
2020/12/18 10:29:10;;;;;;;0.00;0.00;;;16.80;68.40;;;;;;4229051;28;20465;-41
2020/12/18 10:31:30;;;;;;;0.20;0.20;;;16.70;69.00;;;;;;4229463;28;20053;-41
2020/12/18 10:33:51;;;;;;;0.00;0.00;;;16.70;69.30;;;;;;4229080;28;20494;-40
2020/12/18 10:36:13;;;;;;;0.00;0.00;;;16.80;69.20;;;;;;4228413;28;20496;-44
2020/12/18 10:38:36;;;;;;;0.05;0.05;;;16.90;68.60;;;;;;4228171;28;20059;-40
2020/12/18 10:40:56;;;;;;;0.00;0.00;;;17.00;68.40;;;;;;4230857;28;20048;-41
2020/12/18 10:43:18;;;;;;;0.00;0.00;;;17.00;68.50;;;;;;4231863;28;20051;-40
2020/12/18 10:45:39;;;;;;;0.00;0.00;;;17.00;68.90;;;;;;4232385;27;20146;-41
2020/12/18 10:48:00;;;;;;;0.00;0.00;;;16.90;69.30;;;;;;4232944;28;20131;-41
2020/12/18 10:50:21;;;;;;;0.50;0.50;;;16.80;69.90;;;;;;4231620;28;20044;-40
2020/12/18 10:52:45;;;;;;;0.10;0.10;;;16.70;70.50;;;;;;4230006;28;20056;-41
2020/12/18 10:55:06;;;;;;;0.17;0.17;;;16.70;70.90;;;;;;4229795;28;20047;-41
2020/12/18 10:57:27;;;;;;;0.00;0.00;;;16.90;70.10;;;;;;4231883;28;20492;-40
2020/12/18 10:59:48;;;;;;;0.40;0.40;;;17.00;69.70;;;;;;4231645;27;20082;-41
2020/12/18 11:02:09;;;;;;;0.00;0.00;;;17.10;69.40;;;;;;4215047;28;20520;-41
2020/12/18 11:04:31;;;;;;;0.00;0.00;;;17.00;69.60;;;;;;4229894;28;20047;-40
2020/12/18 11:06:52;;;;;;;0.00;0.00;;;17.00;69.70;;;;;;4230530;28;20079;-41
2020/12/18 11:09:14;;;;;;;;;;;17.00;70.20;;;;;;4215618;28;20044;-40
2020/12/18 11:11:35;;;;;;;0.00;0.00;;;16.90;70.70;;;;;;4223393;28;20029;-40
2020/12/18 11:13:56;;;;;;;0.13;0.13;;;16.70;71.30;;;;;;4232118;28;20525;-41
2020/12/18 11:16:20;;;;;;;0.00;0.00;;;16.80;71.60;;;;;;4231453;28;20048;-41
2020/12/18 11:18:41;;;;;;;0.10;0.10;;;16.90;71.10;;;;;;4215349;28;20063;-41
2020/12/18 11:21:04;;;;;;;27.83;0.98;;;16.90;71.10;;;;;;4214989;28;20048;-41
2020/12/18 11:23:25;;;;;;;0.47;0.47;;;16.80;71.20;;;;;;4225773;28;20063;-41
2020/12/18 11:25:47;;;;;;;;;;;16.80;71.50;;;;;;4232519;28;20360;-41
2020/12/18 11:28:08;;;;;;;;;;;16.70;71.90;;;;;;4232174;28;20393;-41
2020/12/18 11:30:29;;;;;;;0.88;0.85;;;16.80;72.10;;;;;;4231650;28;19934;-41
2020/12/18 11:32:50;;;;;;;0.90;0.77;;;16.80;72.00;;;;;;4231666;28;20480;-41
2020/12/18 11:35:11;;;;;;;2.25;1.05;;;16.80;72.00;;;;;;4231859;27;20120;-41
2020/12/18 11:37:33;;;;;;;4.85;1.20;;;16.80;72.30;;;;;;4230837;28;20105;-42
2020/12/18 11:39:54;;;;;;;3.55;1.33;;;16.70;72.50;;;;;;4228578;28;20098;-41
2020/12/18 11:42:15;;;;;;;0.85;0.32;;;16.70;73.00;;;;;;4230453;28;20056;-42
2020/12/18 11:44:36;;;;;;;0.73;0.73;;;16.60;73.30;;;;;;4231342;27;20047;-42
2020/12/18 11:46:57;;;;;;;0.10;0.10;;;16.50;73.80;;;;;;4231699;28;20147;-41
2020/12/18 11:49:18;;;;;;;0.00;0.00;;;16.40;74.40;;;;;;4231163;28;20082;-41
2020/12/18 11:51:39;;;;;;;0.10;0.10;;;16.30;74.90;;;;;;4230404;28;20063;-42
2020/12/18 11:54:00;;;;;;;0.25;0.25;;;16.20;75.40;;;;;;4231207;27;20564;-41
2020/12/18 11:56:21;;;;;;;0.30;0.30;;;16.20;75.80;;;;;;4231272;27;20135;-41
2020/12/18 11:58:43;;;;;;;0.00;0.00;;;16.20;75.70;;;;;;4231002;28;20109;-41
2020/12/18 12:01:04;;;;;;;53.25;1.48;;;16.40;75.30;;;;;;4229568;28;20063;-41
2020/12/18 12:03:25;;;;;;;0.50;0.50;;;16.50;74.90;;;;;;4230564;27;20545;-41
2020/12/18 12:05:46;;;;;;;0.00;0.00;;;16.50;74.80;;;;;;4217801;28;20540;-41
2020/12/18 12:08:07;;;;;;;0.55;0.55;;;16.40;75.00;;;;;;4230472;27;20051;-42
2020/12/18 12:10:28;;;;;;;0.03;0.03;;;16.40;75.30;;;;;;4230809;28;20051;-42
2020/12/18 12:12:49;;;;;;;8.00;2.83;;;16.30;75.50;;;;;;4214049;28;20048;-42
2020/12/18 12:15:12;;;;;;;0.50;0.50;;;16.30;75.90;;;;;;4214536;28;20047;-41
2020/12/18 12:17:36;;;;;;;4.15;3.45;;;16.20;76.20;;;;;;4213966;28;20124;-41
2020/12/18 12:19:57;;;;;;;0.25;0.20;;;16.10;76.60;;;;;;4223207;28;20071;-42
2020/12/18 12:22:18;;;;;;;0.75;0.75;;;16.00;77.00;;;;;;4230835;28;20060;-41
2020/12/18 12:24:42;;;;;;;1.13;1.13;;;16.00;77.50;;;;;;4230736;28;20052;-41
2020/12/18 12:27:03;;;;;;;0.10;0.10;;;16.00;77.60;;;;;;4231071;28;20535;-42
2020/12/18 12:29:24;;;;;;;15.30;1.60;;;16.00;77.50;;;;;;4230684;27;20066;-41
2020/12/18 12:31:46;;;;;;;0.32;0.32;;;16.00;77.60;;;;;;4230809;28;20132;-41
2020/12/18 12:34:07;;;;;;;0.57;0.57;;;16.00;77.70;;;;;;4230882;27;20129;-41
2020/12/18 12:36:27;;;;;;;0.63;0.63;;;16.00;77.90;;;;;;4230206;28;20182;-41
2020/12/18 12:38:48;;;;;;;1.65;1.65;;;15.90;78.10;;;;;;4230470;28;20043;-41
2020/12/18 12:41:09;;;;;;;0.80;0.80;;;15.90;78.50;;;;;;4230296;28;20052;-42
2020/12/18 12:43:30;;;;;;;1.42;0.65;;;15.80;78.70;;;;;;4230692;28;20066;-42
2020/12/18 12:45:52;;;;;;;0.95;0.95;;;15.80;79.10;;;;;;4230421;28;20058;-42